Mattituck, NY (11952)

9:48 PM EDT on September 23, 2014 (GMT -0400)
Mattituck Inlet | Change Station
CLOSE
Current Station
Personal Weather Station
Location: Mattituck, NY
Elevation: 72 ft
Nearby Weather Stations

Elev 72 ft 41.02 °N, 72.55 °W | Updated 2 seconds ago

Clear
Clear
59.4 °F
Feels Like 59.4 °F
N
1.0
Wind Variable Wind from SSE
Gusts 2.0 mph

Today
High -- | Low -- °F
--% Chance of Precip.
Yesterday
High -- | Low -- °F
Precip. -- in
6:38 AM 6:45 PM
Waning Crescent, 0% visible
Pressure 30.40 in
Visibility 10.0 miles
Clouds Clear
Dew Point 39 °F
Humidity 47%
Rainfall 0.00 in
Snow Depth Not available.
UV 0 out of 12
Pollen 2.90 out of 12
Air Quality Not available.
Flu Activity Not available.
METAR KFOK 240053Z AUTO 00000KT 10SM CLR 11/07 A3040 RMK AO2 SLP292 T01060067 TSNO

More Conditions Fewer Conditions

Pressure 30.40 in
Visibility 10.0 miles
Clouds Clear
Dew Point 39 °F
Humidity 47%
Rainfall 0.00 in
Snow Depth Not available.
UV 0 out of 12
Pollen 2.90 out of 12
Air Quality Not available.
Flu Activity Not available.
METAR KFOK 240053Z AUTO 00000KT 10SM CLR 11/07 A3040 RMK AO2 SLP292 T01060067 TSNO

More Conditions Fewer Conditions

10-Day Weather Forecast

Almanac

Astronomy

Sep. 23, 2014 Rise Set
Actual Time 6:38 AM EDT 6:45 PM EDT
Civil Twilight 6:11 AM EDT 7:13 PM EDT
Nautical Twilight 5:39 AM EDT 7:45 PM EDT
Astronomical Twilight 5:06 AM EDT 8:17 PM EDT
Moon 6:00 AM EDT (9/23) 6:22 PM EDT (9/23)
Length of Visible Light 13h 01m
Length of Day
12h 07m
Tomorrow will be 2m 42s shorter.
Waning Crescent, 0% of the Moon is Illuminated
Today
Waning Crescent
Sep 24
New
Oct 1
First Quarter
Oct 8
Full
Oct 15
Last Quarter

Today's Extremes

State Highs State Lows

Community

WunderPhotos

Upload Photos

1,755,844 photos uploaded!

Nearby

Air Quality

  Air Quality AQ Index Pollutant
Yesterday Good
OZONE
Tuesday Good
OZONE
Tuesday Good
PM2.5
Wednesday Good
OZONE
Wednesday Good
PM2.5

Snow Depth

Station Depth Elevation
No new snow has been reported.

Earthquake Activity

City Distance Mag. Time & Date
No recent earthquake activity has been reported nearby.
Minimum magnitude displayed is 2.5.

Coastal Water Temperatures

Place Temperature
New London, CT 66.9 °F
Newport, RI 66.0 °F
Quonset Point, RI 68.0 °F
Conimicut Light, RI 68.0 °F
Providence, RI 68.0 °F

Nearby Weather Stations